sensor_id;sensor_type;location;lat;lon;timestamp;temperature;humidity
22071;DHT22;11200;51.488;6.668;2023-08-01T00:01:00;17.30;99.90
22071;DHT22;11200;51.488;6.668;2023-08-01T00:03:25;17.30;99.90
22071;DHT22;11200;51.488;6.668;2023-08-01T00:05:52;17.30;99.90
22071;DHT22;11200;51.488;6.668;2023-08-01T00:08:17;17.30;99.90
22071;DHT22;11200;51.488;6.668;2023-08-01T00:10:43;17.30;99.90
22071;DHT22;11200;51.488;6.668;2023-08-01T00:13:09;17.30;99.90
22071;DHT22;11200;51.488;6.668;2023-08-01T00:15:35;17.20;99.90
22071;DHT22;11200;51.488;6.668;2023-08-01T00:18:01;17.30;99.90
22071;DHT22;11200;51.488;6.668;2023-08-01T00:20:26;17.20;99.90
22071;DHT22;11200;51.488;6.668;2023-08-01T00:22:52;17.20;99.90
22071;DHT22;11200;51.488;6.668;2023-08-01T00:25:18;17.20;99.90
22071;DHT22;11200;51.488;6.668;2023-08-01T00:27:44;17.20;99.90
22071;DHT22;11200;51.488;6.668;2023-08-01T00:30:11;17.20;99.90
22071;DHT22;11200;51.488;6.668;2023-08-01T00:32:37;17.20;99.90
22071;DHT22;11200;51.488;6.668;2023-08-01T00:35:03;17.20;99.90
22071;DHT22;11200;51.488;6.668;2023-08-01T00:37:29;17.20;99.90
22071;DHT22;11200;51.488;6.668;2023-08-01T00:39:56;17.20;99.90
22071;DHT22;11200;51.488;6.668;2023-08-01T00:42:22;17.20;99.90
22071;DHT22;11200;51.488;6.668;2023-08-01T00:44:48;17.20;99.90
22071;DHT22;11200;51.488;6.668;2023-08-01T00:47:16;17.20;99.90
22071;DHT22;11200;51.488;6.668;2023-08-01T00:49:42;17.20;99.90
22071;DHT22;11200;51.488;6.668;2023-08-01T00:52:08;17.20;99.90
22071;DHT22;11200;51.488;6.668;2023-08-01T00:54:35;17.20;99.90
22071;DHT22;11200;51.488;6.668;2023-08-01T00:57:05;17.20;99.90
22071;DHT22;11200;51.488;6.668;2023-08-01T00:59:32;17.20;99.90
22071;DHT22;11200;51.488;6.668;2023-08-01T01:01:58;17.10;99.90
22071;DHT22;11200;51.488;6.668;2023-08-01T01:04:25;17.10;99.90
22071;DHT22;11200;51.488;6.668;2023-08-01T01:06:57;17.20;99.90
22071;DHT22;11200;51.488;6.668;2023-08-01T01:09:24;17.10;99.90
22071;DHT22;11200;51.488;6.668;2023-08-01T01:11:49;17.10;99.90
22071;DHT22;11200;51.488;6.668;2023-08-01T01:14:15;17.20;99.90
22071;DHT22;11200;51.488;6.668;2023-08-01T01:16:40;17.20;99.90
22071;DHT22;11200;51.488;6.668;2023-08-01T01:19:08;17.10;99.90
22071;DHT22;11200;51.488;6.668;2023-08-01T01:21:35;17.10;99.90
22071;DHT22;11200;51.488;6.668;2023-08-01T01:24:04;17.10;99.90
22071;DHT22;11200;51.488;6.668;2023-08-01T01:26:33;17.10;99.90
22071;DHT22;11200;51.488;6.668;2023-08-01T01:28:59;17.10;99.90
22071;DHT22;11200;51.488;6.668;2023-08-01T01:31:26;17.10;99.90
22071;DHT22;11200;51.488;6.668;2023-08-01T01:33:53;17.10;99.90
22071;DHT22;11200;51.488;6.668;2023-08-01T01:36:19;17.10;99.90
22071;DHT22;11200;51.488;6.668;2023-08-01T01:38:45;17.10;99.90
22071;DHT22;11200;51.488;6.668;2023-08-01T01:41:11;17.10;99.90
22071;DHT22;11200;51.488;6.668;2023-08-01T01:43:37;17.10;99.90
22071;DHT22;11200;51.488;6.668;2023-08-01T01:46:03;17.10;99.90
22071;DHT22;11200;51.488;6.668;2023-08-01T01:48:29;17.00;99.90
22071;DHT22;11200;51.488;6.668;2023-08-01T01:50:55;17.00;99.90
22071;DHT22;11200;51.488;6.668;2023-08-01T01:53:20;17.00;99.90
22071;DHT22;11200;51.488;6.668;2023-08-01T01:55:46;17.00;99.90
22071;DHT22;11200;51.488;6.668;2023-08-01T01:58:12;17.00;99.90
22071;DHT22;11200;51.488;6.668;2023-08-01T02:00:37;17.00;99.90
22071;DHT22;11200;51.488;6.668;2023-08-01T02:03:03;17.00;99.90
22071;DHT22;11200;51.488;6.668;2023-08-01T02:05:29;17.00;99.90
22071;DHT22;11200;51.488;6.668;2023-08-01T02:07:55;16.90;99.90
22071;DHT22;11200;51.488;6.668;2023-08-01T02:10:21;16.90;99.90
22071;DHT22;11200;51.488;6.668;2023-08-01T02:12:47;16.90;99.90
22071;DHT22;11200;51.488;6.668;2023-08-01T02:15:12;16.90;99.90
22071;DHT22;11200;51.488;6.668;2023-08-01T02:17:39;16.90;99.90
22071;DHT22;11200;51.488;6.668;2023-08-01T02:20:05;16.90;99.90
22071;DHT22;11200;51.488;6.668;2023-08-01T02:22:31;16.90;99.90
22071;DHT22;11200;51.488;6.668;2023-08-01T02:24:56;16.90;99.90
22071;DHT22;11200;51.488;6.668;2023-08-01T02:27:22;16.90;99.90
22071;DHT22;11200;51.488;6.668;2023-08-01T02:29:48;16.90;99.90
22071;DHT22;11200;51.488;6.668;2023-08-01T02:32:15;16.80;99.90
22071;DHT22;11200;51.488;6.668;2023-08-01T02:34:41;16.90;99.90
22071;DHT22;11200;51.488;6.668;2023-08-01T02:37:06;16.80;99.90
22071;DHT22;11200;51.488;6.668;2023-08-01T02:39:32;16.80;99.90
22071;DHT22;11200;51.488;6.668;2023-08-01T02:41:58;16.90;99.90
22071;DHT22;11200;51.488;6.668;2023-08-01T02:44:23;16.80;99.90
22071;DHT22;11200;51.488;6.668;2023-08-01T02:46:49;16.80;99.90
22071;DHT22;11200;51.488;6.668;2023-08-01T02:49:16;16.80;99.90
22071;DHT22;11200;51.488;6.668;2023-08-01T02:51:42;16.80;99.90
22071;DHT22;11200;51.488;6.668;2023-08-01T02:54:07;16.80;99.90
22071;DHT22;11200;51.488;6.668;2023-08-01T02:56:33;16.80;99.90
22071;DHT22;11200;51.488;6.668;2023-08-01T02:58:58;16.80;99.90
22071;DHT22;11200;51.488;6.668;2023-08-01T03:01:24;16.80;99.90
22071;DHT22;11200;51.488;6.668;2023-08-01T03:03:50;16.80;99.90
22071;DHT22;11200;51.488;6.668;2023-08-01T03:06:15;16.80;99.90
22071;DHT22;11200;51.488;6.668;2023-08-01T03:08:41;16.80;99.90
22071;DHT22;11200;51.488;6.668;2023-08-01T03:11:07;16.80;99.90
22071;DHT22;11200;51.488;6.668;2023-08-01T03:13:33;16.80;99.90
22071;DHT22;11200;51.488;6.668;2023-08-01T03:15:58;16.80;99.90
22071;DHT22;11200;51.488;6.668;2023-08-01T03:18:24;16.70;99.90
22071;DHT22;11200;51.488;6.668;2023-08-01T03:20:50;16.70;99.90
22071;DHT22;11200;51.488;6.668;2023-08-01T03:23:17;16.70;99.90
22071;DHT22;11200;51.488;6.668;2023-08-01T03:25:46;16.70;99.90
22071;DHT22;11200;51.488;6.668;2023-08-01T03:28:11;16.70;99.90
22071;DHT22;11200;51.488;6.668;2023-08-01T03:30:37;16.70;99.90
22071;DHT22;11200;51.488;6.668;2023-08-01T03:33:03;16.70;99.90
22071;DHT22;11200;51.488;6.668;2023-08-01T03:35:29;16.60;99.90
22071;DHT22;11200;51.488;6.668;2023-08-01T03:38:00;16.60;99.90
22071;DHT22;11200;51.488;6.668;2023-08-01T03:40:26;16.60;99.90
22071;DHT22;11200;51.488;6.668;2023-08-01T03:42:52;16.60;99.90
22071;DHT22;11200;51.488;6.668;2023-08-01T03:45:17;16.60;99.90
22071;DHT22;11200;51.488;6.668;2023-08-01T03:47:43;16.60;99.90
22071;DHT22;11200;51.488;6.668;2023-08-01T03:50:09;16.60;99.90
22071;DHT22;11200;51.488;6.668;2023-08-01T03:52:35;16.60;99.90
22071;DHT22;11200;51.488;6.668;2023-08-01T03:55:00;16.50;99.90
22071;DHT22;11200;51.488;6.668;2023-08-01T03:57:26;16.50;99.90
22071;DHT22;11200;51.488;6.668;2023-08-01T03:59:52;16.50;99.90
22071;DHT22;11200;51.488;6.668;2023-08-01T04:02:17;16.50;99.90
22071;DHT22;11200;51.488;6.668;2023-08-01T04:04:44;16.50;99.90
22071;DHT22;11200;51.488;6.668;2023-08-01T04:07:09;16.50;99.90
22071;DHT22;11200;51.488;6.668;2023-08-01T04:09:35;16.50;99.90
22071;DHT22;11200;51.488;6.668;2023-08-01T04:12:04;16.50;99.90
22071;DHT22;11200;51.488;6.668;2023-08-01T04:14:32;16.50;99.90
22071;DHT22;11200;51.488;6.668;2023-08-01T04:16:58;16.40;99.90
22071;DHT22;11200;51.488;6.668;2023-08-01T04:19:23;16.40;99.90
22071;DHT22;11200;51.488;6.668;2023-08-01T04:21:50;16.40;99.90
22071;DHT22;11200;51.488;6.668;2023-08-01T04:24:16;16.40;99.90
22071;DHT22;11200;51.488;6.668;2023-08-01T04:26:41;16.40;99.90
22071;DHT22;11200;51.488;6.668;2023-08-01T04:29:07;16.40;99.90
22071;DHT22;11200;51.488;6.668;2023-08-01T04:31:33;16.40;99.90
22071;DHT22;11200;51.488;6.668;2023-08-01T04:33:58;16.40;99.90
22071;DHT22;11200;51.488;6.668;2023-08-01T04:36:24;16.40;99.90
22071;DHT22;11200;51.488;6.668;2023-08-01T04:38:49;16.30;99.90
22071;DHT22;11200;51.488;6.668;2023-08-01T04:41:15;16.40;99.90
22071;DHT22;11200;51.488;6.668;2023-08-01T04:43:41;16.30;99.90
22071;DHT22;11200;51.488;6.668;2023-08-01T04:46:06;16.30;99.90
22071;DHT22;11200;51.488;6.668;2023-08-01T04:48:32;16.30;99.90
22071;DHT22;11200;51.488;6.668;2023-08-01T04:50:58;16.30;99.90
22071;DHT22;11200;51.488;6.668;2023-08-01T04:53:23;16.30;99.90
22071;DHT22;11200;51.488;6.668;2023-08-01T04:55:50;16.30;99.90
22071;DHT22;11200;51.488;6.668;2023-08-01T04:58:15;16.30;99.90
22071;DHT22;11200;51.488;6.668;2023-08-01T05:00:41;16.30;99.90
22071;DHT22;11200;51.488;6.668;2023-08-01T05:03:07;16.30;99.90
22071;DHT22;11200;51.488;6.668;2023-08-01T05:05:33;16.30;99.90
22071;DHT22;11200;51.488;6.668;2023-08-01T05:07:58;16.30;99.90
22071;DHT22;11200;51.488;6.668;2023-08-01T05:10:24;16.30;99.90
22071;DHT22;11200;51.488;6.668;2023-08-01T05:12:50;16.30;99.90
22071;DHT22;11200;51.488;6.668;2023-08-01T05:15:15;16.30;99.90
22071;DHT22;11200;51.488;6.668;2023-08-01T05:17:41;16.30;99.90
22071;DHT22;11200;51.488;6.668;2023-08-01T05:20:07;16.30;99.90
22071;DHT22;11200;51.488;6.668;2023-08-01T05:22:33;16.30;99.90
22071;DHT22;11200;51.488;6.668;2023-08-01T05:25:00;16.30;99.90
22071;DHT22;11200;51.488;6.668;2023-08-01T05:27:27;16.30;99.90
22071;DHT22;11200;51.488;6.668;2023-08-01T05:29:52;16.30;99.90
22071;DHT22;11200;51.488;6.668;2023-08-01T05:32:18;16.30;99.90
22071;DHT22;11200;51.488;6.668;2023-08-01T05:34:44;16.30;99.90
22071;DHT22;11200;51.488;6.668;2023-08-01T05:37:09;16.30;99.90
22071;DHT22;11200;51.488;6.668;2023-08-01T05:39:35;16.30;99.90
22071;DHT22;11200;51.488;6.668;2023-08-01T05:42:01;16.30;99.90
22071;DHT22;11200;51.488;6.668;2023-08-01T05:44:26;16.30;99.90
22071;DHT22;11200;51.488;6.668;2023-08-01T05:46:52;16.30;99.90
22071;DHT22;11200;51.488;6.668;2023-08-01T05:49:17;16.30;99.90
22071;DHT22;11200;51.488;6.668;2023-08-01T05:51:43;16.30;99.90
22071;DHT22;11200;51.488;6.668;2023-08-01T05:54:09;16.30;99.90
22071;DHT22;11200;51.488;6.668;2023-08-01T05:56:36;16.30;99.90
22071;DHT22;11200;51.488;6.668;2023-08-01T05:59:02;16.30;99.90
22071;DHT22;11200;51.488;6.668;2023-08-01T06:01:29;16.30;99.90
22071;DHT22;11200;51.488;6.668;2023-08-01T06:03:54;16.30;99.90
22071;DHT22;11200;51.488;6.668;2023-08-01T06:06:20;16.40;99.90
22071;DHT22;11200;51.488;6.668;2023-08-01T06:08:45;16.30;99.90
22071;DHT22;11200;51.488;6.668;2023-08-01T06:11:11;16.40;99.90
22071;DHT22;11200;51.488;6.668;2023-08-01T06:13:37;16.40;99.90
22071;DHT22;11200;51.488;6.668;2023-08-01T06:16:03;16.40;99.90
22071;DHT22;11200;51.488;6.668;2023-08-01T06:18:28;16.40;99.90
22071;DHT22;11200;51.488;6.668;2023-08-01T06:20:54;16.40;99.90
22071;DHT22;11200;51.488;6.668;2023-08-01T06:23:20;16.40;99.90
22071;DHT22;11200;51.488;6.668;2023-08-01T06:25:45;16.40;99.90
22071;DHT22;11200;51.488;6.668;2023-08-01T06:28:11;16.40;99.90
22071;DHT22;11200;51.488;6.668;2023-08-01T06:30:37;16.40;99.90
22071;DHT22;11200;51.488;6.668;2023-08-01T06:33:02;16.50;99.90
22071;DHT22;11200;51.488;6.668;2023-08-01T06:35:28;16.50;99.90
22071;DHT22;11200;51.488;6.668;2023-08-01T06:37:54;16.50;99.90
22071;DHT22;11200;51.488;6.668;2023-08-01T06:40:20;16.50;99.90
22071;DHT22;11200;51.488;6.668;2023-08-01T06:42:47;16.50;99.90
22071;DHT22;11200;51.488;6.668;2023-08-01T06:45:12;16.50;99.90
22071;DHT22;11200;51.488;6.668;2023-08-01T06:47:38;16.50;99.90
22071;DHT22;11200;51.488;6.668;2023-08-01T06:50:04;16.60;99.90
22071;DHT22;11200;51.488;6.668;2023-08-01T06:52:30;16.60;99.90
22071;DHT22;11200;51.488;6.668;2023-08-01T06:54:56;16.60;99.90
22071;DHT22;11200;51.488;6.668;2023-08-01T06:57:21;16.60;99.90
22071;DHT22;11200;51.488;6.668;2023-08-01T06:59:47;16.60;99.90
22071;DHT22;11200;51.488;6.668;2023-08-01T07:02:13;16.70;99.90
22071;DHT22;11200;51.488;6.668;2023-08-01T07:04:38;16.70;99.90
22071;DHT22;11200;51.488;6.668;2023-08-01T07:07:04;16.70;99.90
22071;DHT22;11200;51.488;6.668;2023-08-01T07:09:30;16.70;99.90
22071;DHT22;11200;51.488;6.668;2023-08-01T07:11:55;16.80;99.90
22071;DHT22;11200;51.488;6.668;2023-08-01T07:14:21;16.80;99.90
22071;DHT22;11200;51.488;6.668;2023-08-01T07:16:47;16.80;99.90
22071;DHT22;11200;51.488;6.668;2023-08-01T07:19:12;16.90;99.90
22071;DHT22;11200;51.488;6.668;2023-08-01T07:21:38;16.90;99.90
22071;DHT22;11200;51.488;6.668;2023-08-01T07:24:04;16.90;99.90
22071;DHT22;11200;51.488;6.668;2023-08-01T07:26:30;16.90;99.90
22071;DHT22;11200;51.488;6.668;2023-08-01T07:28:55;16.90;99.90
22071;DHT22;11200;51.488;6.668;2023-08-01T07:31:21;17.00;99.90
22071;DHT22;11200;51.488;6.668;2023-08-01T07:33:50;17.00;99.90
22071;DHT22;11200;51.488;6.668;2023-08-01T07:36:16;17.00;99.90
22071;DHT22;11200;51.488;6.668;2023-08-01T07:38:42;17.00;99.90
22071;DHT22;11200;51.488;6.668;2023-08-01T07:41:07;16.90;99.90
22071;DHT22;11200;51.488;6.668;2023-08-01T07:43:33;17.10;99.90
22071;DHT22;11200;51.488;6.668;2023-08-01T07:45:59;17.10;99.90
22071;DHT22;11200;51.488;6.668;2023-08-01T07:48:27;17.10;99.90
22071;DHT22;11200;51.488;6.668;2023-08-01T07:50:52;17.10;99.90
22071;DHT22;11200;51.488;6.668;2023-08-01T07:53:18;17.10;99.90
22071;DHT22;11200;51.488;6.668;2023-08-01T07:55:44;17.20;99.90
22071;DHT22;11200;51.488;6.668;2023-08-01T07:58:10;17.20;99.90
22071;DHT22;11200;51.488;6.668;2023-08-01T08:00:35;17.20;99.90
22071;DHT22;11200;51.488;6.668;2023-08-01T08:03:01;17.30;99.90
22071;DHT22;11200;51.488;6.668;2023-08-01T08:05:27;17.30;99.90
22071;DHT22;11200;51.488;6.668;2023-08-01T08:07:52;17.40;99.90
22071;DHT22;11200;51.488;6.668;2023-08-01T08:10:18;17.40;99.90
22071;DHT22;11200;51.488;6.668;2023-08-01T08:12:44;17.40;99.90
22071;DHT22;11200;51.488;6.668;2023-08-01T08:15:10;17.50;99.90
22071;DHT22;11200;51.488;6.668;2023-08-01T08:17:36;17.50;99.90
22071;DHT22;11200;51.488;6.668;2023-08-01T08:20:03;17.60;99.90
22071;DHT22;11200;51.488;6.668;2023-08-01T08:22:29;17.60;99.90
22071;DHT22;11200;51.488;6.668;2023-08-01T08:24:54;17.60;99.90
22071;DHT22;11200;51.488;6.668;2023-08-01T08:27:21;17.70;99.90
22071;DHT22;11200;51.488;6.668;2023-08-01T08:29:46;17.70;99.90
22071;DHT22;11200;51.488;6.668;2023-08-01T08:32:12;17.70;99.90
22071;DHT22;11200;51.488;6.668;2023-08-01T08:34:38;17.80;99.90
22071;DHT22;11200;51.488;6.668;2023-08-01T08:37:05;17.90;99.90
22071;DHT22;11200;51.488;6.668;2023-08-01T08:39:30;18.00;99.90
22071;DHT22;11200;51.488;6.668;2023-08-01T08:41:56;18.10;99.90
22071;DHT22;11200;51.488;6.668;2023-08-01T08:44:22;18.30;99.90
22071;DHT22;11200;51.488;6.668;2023-08-01T08:46:51;18.40;99.90
22071;DHT22;11200;51.488;6.668;2023-08-01T08:49:20;18.40;99.90
22071;DHT22;11200;51.488;6.668;2023-08-01T08:51:47;18.60;99.90
22071;DHT22;11200;51.488;6.668;2023-08-01T08:54:14;18.70;99.90
22071;DHT22;11200;51.488;6.668;2023-08-01T08:56:41;18.80;99.90
22071;DHT22;11200;51.488;6.668;2023-08-01T08:59:09;19.00;99.90
22071;DHT22;11200;51.488;6.668;2023-08-01T09:01:39;19.10;99.90
22071;DHT22;11200;51.488;6.668;2023-08-01T09:04:06;19.20;99.90
22071;DHT22;11200;51.488;6.668;2023-08-01T09:06:40;19.20;99.90
22071;DHT22;11200;51.488;6.668;2023-08-01T09:09:13;19.30;99.90
22071;DHT22;11200;51.488;6.668;2023-08-01T09:11:47;19.40;99.90
22071;DHT22;11200;51.488;6.668;2023-08-01T09:14:14;19.40;99.90
22071;DHT22;11200;51.488;6.668;2023-08-01T09:16:41;19.50;99.90
22071;DHT22;11200;51.488;6.668;2023-08-01T09:19:08;19.50;99.90
22071;DHT22;11200;51.488;6.668;2023-08-01T09:21:35;19.60;99.90
22071;DHT22;11200;51.488;6.668;2023-08-01T09:24:17;19.70;99.90
22071;DHT22;11200;51.488;6.668;2023-08-01T09:26:44;19.80;99.90
22071;DHT22;11200;51.488;6.668;2023-08-01T09:29:11;19.80;99.90
22071;DHT22;11200;51.488;6.668;2023-08-01T09:31:39;19.90;99.90
22071;DHT22;11200;51.488;6.668;2023-08-01T09:34:06;20.00;99.90
22071;DHT22;11200;51.488;6.668;2023-08-01T09:36:33;20.10;99.90
22071;DHT22;11200;51.488;6.668;2023-08-01T09:39:02;20.20;99.90
22071;DHT22;11200;51.488;6.668;2023-08-01T09:41:32;20.30;99.90
22071;DHT22;11200;51.488;6.668;2023-08-01T09:43:57;20.40;99.90
22071;DHT22;11200;51.488;6.668;2023-08-01T09:46:24;20.40;99.90
22071;DHT22;11200;51.488;6.668;2023-08-01T09:48:50;20.40;99.90
22071;DHT22;11200;51.488;6.668;2023-08-01T09:51:17;20.50;99.90
22071;DHT22;11200;51.488;6.668;2023-08-01T09:53:55;20.50;99.90
22071;DHT22;11200;51.488;6.668;2023-08-01T09:56:26;20.50;99.90
22071;DHT22;11200;51.488;6.668;2023-08-01T09:58:55;20.50;99.90
22071;DHT22;11200;51.488;6.668;2023-08-01T10:01:23;20.60;99.90
22071;DHT22;11200;51.488;6.668;2023-08-01T10:03:51;20.60;99.90
22071;DHT22;11200;51.488;6.668;2023-08-01T10:08:45;20.70;99.90
22071;DHT22;11200;51.488;6.668;2023-08-01T10:11:22;20.70;99.90
22071;DHT22;11200;51.488;6.668;2023-08-01T10:13:48;20.80;99.90
22071;DHT22;11200;51.488;6.668;2023-08-01T10:16:15;20.80;99.90
22071;DHT22;11200;51.488;6.668;2023-08-01T10:18:42;20.80;99.90
22071;DHT22;11200;51.488;6.668;2023-08-01T10:21:11;20.80;99.90
22071;DHT22;11200;51.488;6.668;2023-08-01T10:23:37;20.80;99.90
22071;DHT22;11200;51.488;6.668;2023-08-01T10:26:05;20.80;99.90
22071;DHT22;11200;51.488;6.668;2023-08-01T10:28:37;20.90;99.90
22071;DHT22;11200;51.488;6.668;2023-08-01T10:33:37;20.80;99.90
22071;DHT22;11200;51.488;6.668;2023-08-01T10:36:21;20.80;99.90
22071;DHT22;11200;51.488;6.668;2023-08-01T10:38:52;20.80;99.90
22071;DHT22;11200;51.488;6.668;2023-08-01T10:43:50;20.70;99.90
22071;DHT22;11200;51.488;6.668;2023-08-01T10:46:16;20.60;99.90
22071;DHT22;11200;51.488;6.668;2023-08-01T10:48:50;20.60;99.90
22071;DHT22;11200;51.488;6.668;2023-08-01T10:51:16;20.50;99.90
22071;DHT22;11200;51.488;6.668;2023-08-01T10:53:43;20.40;99.90
22071;DHT22;11200;51.488;6.668;2023-08-01T10:56:19;20.40;99.90
22071;DHT22;11200;51.488;6.668;2023-08-01T10:58:46;20.30;99.90
22071;DHT22;11200;51.488;6.668;2023-08-01T11:01:12;20.20;99.90
22071;DHT22;11200;51.488;6.668;2023-08-01T11:03:39;20.20;99.90
22071;DHT22;11200;51.488;6.668;2023-08-01T11:06:05;20.10;99.90
22071;DHT22;11200;51.488;6.668;2023-08-01T11:08:38;20.10;99.90
22071;DHT22;11200;51.488;6.668;2023-08-01T11:11:10;20.00;99.90
22071;DHT22;11200;51.488;6.668;2023-08-01T11:13:36;20.00;99.90
22071;DHT22;11200;51.488;6.668;2023-08-01T11:16:06;19.90;99.90
22071;DHT22;11200;51.488;6.668;2023-08-01T11:18:44;19.90;99.90
22071;DHT22;11200;51.488;6.668;2023-08-01T11:21:10;19.90;99.90
22071;DHT22;11200;51.488;6.668;2023-08-01T11:23:36;19.80;99.90
22071;DHT22;11200;51.488;6.668;2023-08-01T11:26:10;19.80;99.90
22071;DHT22;11200;51.488;6.668;2023-08-01T11:28:36;19.70;99.90
22071;DHT22;11200;51.488;6.668;2023-08-01T11:31:11;19.70;99.90
22071;DHT22;11200;51.488;6.668;2023-08-01T11:33:38;19.70;99.90
22071;DHT22;11200;51.488;6.668;2023-08-01T11:36:04;19.60;99.90
22071;DHT22;11200;51.488;6.668;2023-08-01T11:38:33;19.70;99.90
22071;DHT22;11200;51.488;6.668;2023-08-01T11:41:06;19.70;99.90
22071;DHT22;11200;51.488;6.668;2023-08-01T11:43:42;19.70;99.90
22071;DHT22;11200;51.488;6.668;2023-08-01T11:46:07;19.70;99.90
22071;DHT22;11200;51.488;6.668;2023-08-01T11:48:34;19.80;99.90
22071;DHT22;11200;51.488;6.668;2023-08-01T11:51:00;19.80;99.90
22071;DHT22;11200;51.488;6.668;2023-08-01T11:53:27;19.80;99.90
22071;DHT22;11200;51.488;6.668;2023-08-01T11:55:55;19.80;99.90
22071;DHT22;11200;51.488;6.668;2023-08-01T11:58:35;19.80;99.90
22071;DHT22;11200;51.488;6.668;2023-08-01T12:01:12;19.80;99.90
22071;DHT22;11200;51.488;6.668;2023-08-01T12:03:48;19.80;99.90
22071;DHT22;11200;51.488;6.668;2023-08-01T12:06:15;19.80;99.90
22071;DHT22;11200;51.488;6.668;2023-08-01T12:08:45;19.80;99.90
22071;DHT22;11200;51.488;6.668;2023-08-01T12:11:37;19.80;99.90
22071;DHT22;11200;51.488;6.668;2023-08-01T12:14:10;19.80;99.90
22071;DHT22;11200;51.488;6.668;2023-08-01T12:16:44;19.80;99.90
22071;DHT22;11200;51.488;6.668;2023-08-01T12:19:10;19.80;99.90
22071;DHT22;11200;51.488;6.668;2023-08-01T12:21:37;19.80;99.90
22071;DHT22;11200;51.488;6.668;2023-08-01T12:24:03;19.80;99.90
22071;DHT22;11200;51.488;6.668;2023-08-01T12:26:29;19.80;99.90
22071;DHT22;11200;51.488;6.668;2023-08-01T12:28:55;19.80;99.90
22071;DHT22;11200;51.488;6.668;2023-08-01T12:31:22;19.80;99.90
22071;DHT22;11200;51.488;6.668;2023-08-01T12:33:48;19.80;99.90
22071;DHT22;11200;51.488;6.668;2023-08-01T12:36:15;19.80;99.90
22071;DHT22;11200;51.488;6.668;2023-08-01T12:38:41;19.80;99.90
22071;DHT22;11200;51.488;6.668;2023-08-01T12:41:07;19.80;99.90
22071;DHT22;11200;51.488;6.668;2023-08-01T12:43:33;19.90;99.90
22071;DHT22;11200;51.488;6.668;2023-08-01T12:46:00;19.90;99.90
22071;DHT22;11200;51.488;6.668;2023-08-01T12:48:27;20.00;99.90
22071;DHT22;11200;51.488;6.668;2023-08-01T12:50:52;20.00;99.90
22071;DHT22;11200;51.488;6.668;2023-08-01T12:53:19;20.10;99.90
22071;DHT22;11200;51.488;6.668;2023-08-01T12:55:46;20.20;99.90
22071;DHT22;11200;51.488;6.668;2023-08-01T12:58:12;20.30;99.90
22071;DHT22;11200;51.488;6.668;2023-08-01T13:00:39;20.40;99.90
22071;DHT22;11200;51.488;6.668;2023-08-01T13:03:06;20.50;99.90
22071;DHT22;11200;51.488;6.668;2023-08-01T13:05:35;20.50;99.90
22071;DHT22;11200;51.488;6.668;2023-08-01T13:08:02;20.60;99.90
22071;DHT22;11200;51.488;6.668;2023-08-01T13:10:35;20.70;99.90
22071;DHT22;11200;51.488;6.668;2023-08-01T13:13:01;20.80;99.90
22071;DHT22;11200;51.488;6.668;2023-08-01T13:15:27;20.80;99.90
22071;DHT22;11200;51.488;6.668;2023-08-01T13:17:53;20.80;99.90
22071;DHT22;11200;51.488;6.668;2023-08-01T13:20:19;20.90;99.90
22071;DHT22;11200;51.488;6.668;2023-08-01T13:25:21;21.00;99.90
22071;DHT22;11200;51.488;6.668;2023-08-01T13:27:46;21.00;99.90
22071;DHT22;11200;51.488;6.668;2023-08-01T13:30:12;21.10;99.90
22071;DHT22;11200;51.488;6.668;2023-08-01T13:32:43;21.10;99.90
22071;DHT22;11200;51.488;6.668;2023-08-01T13:35:10;21.10;99.90
22071;DHT22;11200;51.488;6.668;2023-08-01T13:37:36;21.20;99.90
22071;DHT22;11200;51.488;6.668;2023-08-01T13:40:03;21.20;99.90
22071;DHT22;11200;51.488;6.668;2023-08-01T13:42:28;21.30;99.90
22071;DHT22;11200;51.488;6.668;2023-08-01T13:44:54;21.40;99.90
22071;DHT22;11200;51.488;6.668;2023-08-01T13:47:20;21.50;99.90
22071;DHT22;11200;51.488;6.668;2023-08-01T13:49:46;21.50;99.90
22071;DHT22;11200;51.488;6.668;2023-08-01T13:52:11;21.70;99.90
22071;DHT22;11200;51.488;6.668;2023-08-01T13:54:37;21.60;99.90
22071;DHT22;11200;51.488;6.668;2023-08-01T13:57:03;21.70;99.90
22071;DHT22;11200;51.488;6.668;2023-08-01T13:59:29;21.70;99.90
22071;DHT22;11200;51.488;6.668;2023-08-01T14:01:55;21.80;99.90
22071;DHT22;11200;51.488;6.668;2023-08-01T14:04:20;21.80;99.90
22071;DHT22;11200;51.488;6.668;2023-08-01T14:06:46;21.80;99.90
22071;DHT22;11200;51.488;6.668;2023-08-01T14:09:12;21.80;99.90
22071;DHT22;11200;51.488;6.668;2023-08-01T14:11:38;21.80;99.90
22071;DHT22;11200;51.488;6.668;2023-08-01T14:14:04;21.80;99.90
22071;DHT22;11200;51.488;6.668;2023-08-01T14:16:30;21.90;99.90
22071;DHT22;11200;51.488;6.668;2023-08-01T14:19:00;21.90;99.90
22071;DHT22;11200;51.488;6.668;2023-08-01T14:21:26;21.90;99.90
22071;DHT22;11200;51.488;6.668;2023-08-01T14:23:52;21.90;99.90
22071;DHT22;11200;51.488;6.668;2023-08-01T14:26:18;22.00;99.90
22071;DHT22;11200;51.488;6.668;2023-08-01T14:28:44;22.00;99.90
22071;DHT22;11200;51.488;6.668;2023-08-01T14:31:11;22.10;99.90
22071;DHT22;11200;51.488;6.668;2023-08-01T14:33:37;22.10;99.90
22071;DHT22;11200;51.488;6.668;2023-08-01T14:36:08;22.20;99.90
22071;DHT22;11200;51.488;6.668;2023-08-01T14:38:34;22.10;99.90
22071;DHT22;11200;51.488;6.668;2023-08-01T14:41:02;22.20;99.90
22071;DHT22;11200;51.488;6.668;2023-08-01T14:43:27;22.20;99.90
22071;DHT22;11200;51.488;6.668;2023-08-01T14:45:53;22.20;99.90
22071;DHT22;11200;51.488;6.668;2023-08-01T14:48:19;22.30;99.90
22071;DHT22;11200;51.488;6.668;2023-08-01T14:50:46;22.30;99.90
22071;DHT22;11200;51.488;6.668;2023-08-01T14:53:12;22.20;99.90
22071;DHT22;11200;51.488;6.668;2023-08-01T14:55:37;22.30;99.90
22071;DHT22;11200;51.488;6.668;2023-08-01T14:58:03;22.30;99.90
22071;DHT22;11200;51.488;6.668;2023-08-01T15:00:36;22.30;99.90
22071;DHT22;11200;51.488;6.668;2023-08-01T15:03:02;22.30;99.90
22071;DHT22;11200;51.488;6.668;2023-08-01T15:05:29;22.20;99.90
22071;DHT22;11200;51.488;6.668;2023-08-01T15:07:54;22.20;99.90
22071;DHT22;11200;51.488;6.668;2023-08-01T15:10:20;22.20;99.90
22071;DHT22;11200;51.488;6.668;2023-08-01T15:12:46;22.20;99.90
22071;DHT22;11200;51.488;6.668;2023-08-01T15:15:12;22.20;99.90
22071;DHT22;11200;51.488;6.668;2023-08-01T15:17:37;22.20;99.90
22071;DHT22;11200;51.488;6.668;2023-08-01T15:20:03;22.20;99.90
22071;DHT22;11200;51.488;6.668;2023-08-01T15:22:29;22.20;99.90
22071;DHT22;11200;51.488;6.668;2023-08-01T15:24:54;22.10;99.90
22071;DHT22;11200;51.488;6.668;2023-08-01T15:30:46;22.10;99.90
22071;DHT22;11200;51.488;6.668;2023-08-01T15:33:12;22.10;99.90
22071;DHT22;11200;51.488;6.668;2023-08-01T15:35:38;22.00;99.90
22071;DHT22;11200;51.488;6.668;2023-08-01T15:38:03;22.00;99.90
22071;DHT22;11200;51.488;6.668;2023-08-01T15:40:29;22.00;99.90